Time;durP1;ratioP1;P1;durP2;ratioP2;P2;SDS_P1;SDS_P2;PMS_P1;PMS_P2;Temp;Humidity;BMP_temperature;BMP_pressure;BME280_temperature;BME280_humidity;BME280_pressure;Samples;Min_cycle;Max_cycle;Signal;HPM_P1;HPM_P2
2021/06/14 00:00:32;;;;;;;9.38;2.30;;;;;;;13.40;67.32;99056.82;1669916;85;21552;-94
2021/06/14 00:03:01;;;;;;;9.50;2.60;;;;;;;13.39;67.24;99053.83;1712638;83;21061;-94
2021/06/14 00:05:41;;;;;;;4.35;2.05;;;;;;;13.40;66.25;99058.59;1693046;83;21019;-94
2021/06/14 00:08:15;;;;;;;4.87;2.20;;;;;;;13.38;68.62;99051.27;1598340;83;21130;-93
2021/06/14 00:10:48;;;;;;;5.10;2.20;;;;;;;13.37;65.56;99045.20;1561217;89;21182;-93
2021/06/14 00:13:16;;;;;;;5.80;2.37;;;;;;;13.33;68.95;99048.37;1649209;86;21147;-94
2021/06/14 00:15:46;;;;;;;5.72;2.75;;;;;;;13.32;66.74;99050.58;1598269;84;21170;-93
2021/06/14 00:18:14;;;;;;;7.03;2.65;;;;;;;13.29;67.25;99040.27;1669867;85;21551;-94
2021/06/14 00:20:44;;;;;;;5.28;2.80;;;;;;;13.29;67.21;99049.40;1668090;83;21101;-94
2021/06/14 00:23:13;;;;;;;7.85;2.80;;;;;;;13.31;66.11;99044.12;1662832;84;21648;-94
2021/06/14 00:25:39;;;;;;;4.72;2.35;;;;;;;13.28;66.20;99039.81;1691785;84;21180;-92
2021/06/14 00:28:08;;;;;;;5.33;2.77;;;;;;;13.28;67.82;99031.98;1688457;84;21100;-91
2021/06/14 00:30:41;;;;;;;4.58;2.20;;;;;;;13.24;69.82;99026.48;1683061;82;21115;-90
2021/06/14 00:33:10;;;;;;;5.40;2.70;;;;;;;13.21;69.03;99025.73;1658265;82;21147;-92
2021/06/14 00:35:37;;;;;;;6.35;2.20;;;;;;;13.25;67.36;99038.64;1628928;86;21319;-91
2021/06/14 00:38:04;;;;;;;6.75;2.30;;;;;;;13.25;70.21;99034.73;1620154;85;21125;-92
2021/06/14 00:40:32;;;;;;;7.50;2.67;;;;;;;13.30;68.60;99034.58;1639265;87;21059;-92
2021/06/14 00:43:00;;;;;;;3.25;1.70;;;;;;;13.32;67.58;99040.13;1650908;85;21086;-93
2021/06/14 00:45:31;;;;;;;7.12;2.30;;;;;;;13.37;67.17;99033.88;1666857;85;21019;-90
2021/06/14 00:48:01;;;;;;;4.72;2.10;;;;;;;13.37;67.78;99033.45;1662515;84;21228;-92
2021/06/14 00:50:40;;;;;;;2.87;1.57;;;;;;;13.40;67.57;99033.78;1668740;84;21659;-92
2021/06/14 00:53:15;;;;;;;4.97;2.75;;;;;;;13.43;68.68;99033.66;1666302;83;21103;-92
2021/06/14 00:55:42;;;;;;;8.05;2.50;;;;;;;13.39;69.12;99021.62;1683436;85;21667;-92
2021/06/14 00:58:10;;;;;;;5.37;2.58;;;;;;;13.42;67.23;99020.22;1691657;84;21061;-87
2021/06/14 01:00:38;;;;;;;9.00;3.08;;;;;;;13.41;67.57;99021.98;1691582;84;21022;-90
2021/06/14 01:03:06;;;;;;;6.05;2.50;;;;;;;13.38;67.85;99019.94;1691451;84;21081;-90
2021/06/14 01:05:38;;;;;;;7.03;2.52;;;;;;;13.32;68.73;99016.63;1637907;84;21139;-93
2021/06/14 01:08:08;;;;;;;5.15;2.30;;;;;;;13.30;68.95;99022.37;1640197;84;21169;-90
2021/06/14 01:10:38;;;;;;;6.97;2.40;;;;;;;13.26;68.95;99015.98;1703477;82;21708;-92
2021/06/14 01:13:47;;;;;;;8.23;2.52;;;;;;;13.18;69.21;99011.52;1650948;81;21186;-93
2021/06/14 01:16:52;;;;;;;5.72;2.45;;;;;;;13.15;69.82;99007.27;1614859;89;21653;-94
2021/06/14 01:20:06;;;;;;;4.72;2.42;;;;;;;13.12;68.94;99015.20;1643587;84;21146;-93
2021/06/14 01:22:57;;;;;;;5.47;2.50;;;;;;;13.07;68.87;99006.23;1665460;86;21156;-91
2021/06/14 01:25:49;;;;;;;4.72;2.00;;;;;;;13.08;68.61;99013.61;1649033;83;21151;-93
2021/06/14 01:28:20;;;;;;;5.70;2.17;;;;;;;13.07;69.50;99009.28;1714508;82;21112;-92
2021/06/14 01:30:50;;;;;;;5.60;2.08;;;;;;;13.11;68.36;99010.87;1665766;83;21224;-93
2021/06/14 01:33:26;;;;;;;7.33;2.35;;;;;;;13.13;68.50;99006.01;1643867;83;21127;-92
2021/06/14 01:38:55;;;;;;;8.90;2.52;;;;;;;13.16;70.21;99014.17;1599043;87;21136;-94
2021/06/14 01:41:27;;;;;;;6.17;2.90;;;;;;;13.20;70.26;99024.05;1621678;82;21118;-93
2021/06/14 01:43:58;;;;;;;6.85;2.60;;;;;;;13.21;69.64;99022.70;1619503;82;21160;-93
2021/06/14 01:46:31;;;;;;;8.73;3.00;;;;;;;13.16;71.37;99009.41;1661186;83;21149;-93
2021/06/14 01:49:01;;;;;;;8.03;3.02;;;;;;;13.11;72.98;99002.61;1635031;85;21171;-93
2021/06/14 01:51:31;;;;;;;8.10;2.85;;;;;;;13.07;73.09;99002.33;1677436;84;21149;-92
2021/06/14 01:54:02;;;;;;;9.25;2.83;;;;;;;13.08;72.94;98998.79;1635772;83;21230;-93
2021/06/14 01:56:54;;;;;;;10.40;2.87;;;;;;;13.10;71.44;99003.96;1652361;84;21119;-93
2021/06/14 01:59:29;;;;;;;6.15;2.70;;;;;;;13.05;72.53;99003.27;1666342;85;21216;-92
2021/06/14 02:01:57;;;;;;;9.25;2.67;;;;;;;13.05;72.22;98998.05;1651451;85;21083;-89
2021/06/14 02:04:25;;;;;;;8.78;2.83;;;;;;;13.07;71.05;98997.10;1668507;84;21122;-89
2021/06/14 02:06:55;;;;;;;5.05;2.20;;;;;;;13.11;71.07;98993.91;1646402;84;21050;-92
2021/06/14 02:09:25;;;;;;;8.58;2.75;;;;;;;13.15;70.99;98987.69;1647348;84;21061;-89
2021/06/14 02:11:59;;;;;;;4.70;2.35;;;;;;;13.18;70.09;98998.00;1643293;84;21180;-93
2021/06/14 02:14:30;;;;;;;10.78;2.62;;;;;;;13.22;69.38;98999.58;1658093;84;21127;-92
2021/06/14 02:17:07;;;;;;;13.38;2.87;;;;;;;13.25;69.03;98999.48;1719907;83;21178;-92
2021/06/14 02:19:38;;;;;;;4.00;2.47;;;;;;;13.25;68.66;98998.18;1717760;80;21069;-92
2021/06/14 02:22:06;;;;;;;5.30;2.75;;;;;;;13.22;69.38;98991.75;1712163;81;21083;-92
2021/06/14 02:24:33;;;;;;;8.20;2.30;;;;;;;13.25;68.53;98990.78;1680432;84;21306;-92
2021/06/14 02:27:01;;;;;;;6.87;2.50;;;;;;;13.24;68.62;98989.94;1696528;84;21085;-92
2021/06/14 02:29:28;;;;;;;4.75;2.58;;;;;;;13.21;69.50;98987.45;1726838;83;21030;-90
2021/06/14 02:31:55;;;;;;;6.78;2.72;;;;;;;13.18;70.06;98977.58;1726589;81;21030;-90
2021/06/14 02:34:24;;;;;;;7.80;2.65;;;;;;;13.18;69.18;98978.42;1717872;81;21127;-92
2021/06/14 02:36:53;;;;;;;7.35;2.92;;;;;;;13.15;69.87;98975.94;1679614;83;21492;-94
2021/06/14 02:39:25;;;;;;;5.33;2.27;;;;;;;13.17;69.27;98980.65;1655934;85;21305;-90
2021/06/14 02:41:56;;;;;;;5.97;2.83;;;;;;;13.19;68.96;98985.79;1691212;82;21054;31
2021/06/14 02:44:25;;;;;;;6.05;2.45;;;;;;;13.17;68.56;98974.13;1589870;90;21469;-92
2021/06/14 02:46:58;;;;;;;8.93;2.65;;;;;;;13.18;68.63;98971.89;1646221;85;21085;-93
2021/06/14 02:49:27;;;;;;;5.80;2.25;;;;;;;13.21;68.48;98975.71;1659396;83;21162;-86
2021/06/14 02:51:57;;;;;;;8.85;2.70;;;;;;;13.19;68.65;98969.70;1633174;87;21251;-85
2021/06/14 02:54:37;;;;;;;8.80;3.10;;;;;;;13.20;69.12;98970.08;1639963;83;21147;-93
2021/06/14 02:57:11;;;;;;;6.42;3.05;;;;;;;13.20;69.28;98979.22;1647065;83;21212;-94
2021/06/14 02:59:41;;;;;;;8.45;3.22;;;;;;;13.17;69.22;98970.20;1603886;86;21771;-93
2021/06/14 03:02:09;;;;;;;6.58;2.90;;;;;;;13.14;69.80;98972.92;1640922;84;21203;-93
2021/06/14 03:04:36;;;;;;;12.30;2.90;;;;;;;13.13;69.19;98976.45;1663856;85;21127;-93
2021/06/14 03:07:04;;;;;;;10.48;3.33;;;;;;;13.06;70.77;98975.81;1671816;81;21173;-93
2021/06/14 03:09:33;;;;;;;5.92;2.92;;;;;;;13.02;70.93;98969.47;1672750;82;21127;-93
2021/06/14 03:12:02;;;;;;;7.85;2.90;;;;;;;12.97;69.93;98970.95;1667285;84;21112;-93
2021/06/14 03:14:30;;;;;;;8.83;2.80;;;;;;;12.90;70.96;98967.70;1715452;80;21039;-93
2021/06/14 03:16:59;;;;;;;8.73;2.70;;;;;;;12.92;70.62;98976.32;1701982;81;21105;-92
2021/06/14 03:19:27;;;;;;;5.72;2.27;;;;;;;12.90;70.86;98973.38;1691837;81;21125;-93
2021/06/14 03:21:55;;;;;;;15.85;2.83;;;;;;;12.90;70.85;98969.00;1620511;85;21164;-92
2021/06/14 03:24:24;;;;;;;9.08;2.55;;;;;;;12.91;70.87;98973.33;1657167;82;21103;-92
2021/06/14 03:26:52;;;;;;;9.43;2.50;;;;;;;12.92;70.82;98976.32;1711880;82;21040;-93
2021/06/14 03:29:22;;;;;;;9.83;3.10;;;;;;;12.98;69.98;98977.86;1633132;80;21247;-93
2021/06/14 03:31:51;;;;;;;10.60;2.80;;;;;;;13.00;70.01;98972.13;1649717;84;21303;-93
2021/06/14 03:34:21;;;;;;;8.68;2.95;;;;;;;13.00;70.33;98972.59;1710525;82;21066;-93
2021/06/14 03:36:49;;;;;;;6.22;3.05;;;;;;;13.00;69.71;98969.52;1676573;81;21180;-94
2021/06/14 03:39:17;;;;;;;10.85;2.92;;;;;;;12.94;70.32;98970.59;1717485;83;21100;-93
2021/06/14 03:41:47;;;;;;;6.70;2.75;;;;;;;12.98;69.06;98973.10;1674938;83;21729;-93
2021/06/14 03:44:17;;;;;;;6.92;2.85;;;;;;;12.97;70.16;98973.99;1684960;83;21162;-92
2021/06/14 03:46:44;;;;;;;5.83;2.77;;;;;;;12.97;69.04;98979.21;1652114;83;21418;-94
2021/06/14 03:49:11;;;;;;;6.50;2.40;;;;;;;12.96;70.03;98971.84;1668946;81;21620;-93
2021/06/14 03:51:39;;;;;;;7.35;2.80;;;;;;;12.92;70.16;98976.32;1678785;84;21737;-94
2021/06/14 03:54:06;;;;;;;7.80;2.70;;;;;;;12.93;70.67;98975.86;1661913;83;21157;-93
2021/06/14 03:56:35;;;;;;;11.38;2.50;;;;;;;12.93;70.48;98981.08;1635668;87;21098;-93
2021/06/14 03:59:04;;;;;;;11.60;2.67;;;;;;;12.97;69.94;98982.70;1645995;85;21768;-93
2021/06/14 04:01:31;;;;;;;12.70;3.20;;;;;;;13.03;71.09;98975.95;1651844;85;21156;-93
2021/06/14 04:06:28;;;;;;;12.50;3.27;;;;;;;13.09;70.04;98973.10;1690481;84;21148;-92
2021/06/14 04:08:56;;;;;;;14.33;3.02;;;;;;;13.11;70.18;98973.89;1695113;83;21197;-93
2021/06/14 04:11:24;;;;;;;9.03;3.42;;;;;;;13.09;70.36;98975.71;1698239;84;21114;-93
2021/06/14 04:13:51;;;;;;;9.33;2.98;;;;;;;13.04;70.53;98982.00;1722859;82;21626;-93
2021/06/14 04:16:19;;;;;;;6.78;2.60;;;;;;;13.07;70.52;98974.05;1724696;83;21514;-93
2021/06/14 04:18:45;;;;;;;7.30;2.42;;;;;;;13.03;70.39;98983.77;1700483;81;21670;-93
2021/06/14 04:21:12;;;;;;;7.60;2.50;;;;;;;13.02;71.31;98982.52;1695744;84;20996;-93
2021/06/14 04:23:39;;;;;;;4.87;2.30;;;;;;;13.06;70.16;98978.42;1709232;83;21111;-94
2021/06/14 04:26:07;;;;;;;4.80;2.05;;;;;;;13.03;71.16;98981.59;1706130;80;21145;-92
2021/06/14 04:28:34;;;;;;;9.58;2.70;;;;;;;13.09;70.94;98983.97;1670245;83;21175;-92
2021/06/14 04:31:01;;;;;;;7.58;2.35;;;;;;;13.16;70.65;98984.16;1667176;86;21065;-92
2021/06/14 04:33:27;;;;;;;8.48;2.80;;;;;;;13.14;71.09;98984.66;1665695;86;21053;-93
2021/06/14 04:35:54;;;;;;;9.38;2.72;;;;;;;13.14;71.05;98985.97;1665592;86;21092;-91
2021/06/14 04:38:21;;;;;;;9.18;3.10;;;;;;;13.16;71.10;98990.68;1661096;85;21184;-91
2021/06/14 04:40:47;;;;;;;7.05;2.95;;;;;;;13.09;71.35;98984.84;1675667;85;21178;-92
2021/06/14 04:43:14;;;;;;;11.97;4.00;;;;;;;13.13;71.37;98987.73;1669142;85;21050;-92
2021/06/14 04:45:41;;;;;;;10.15;3.17;;;;;;;13.12;71.51;98983.41;1676829;85;21103;-92
2021/06/14 04:48:07;;;;;;;10.88;3.80;;;;;;;13.17;71.26;98990.22;1671172;85;21398;-92
2021/06/14 04:50:34;;;;;;;17.30;6.28;;;;;;;13.17;70.95;98987.61;1673298;85;21115;-93
2021/06/14 04:53:00;;;;;;;8.08;3.27;;;;;;;13.18;71.33;98986.25;1679532;85;21095;-92
2021/06/14 04:55:27;;;;;;;10.03;2.67;;;;;;;13.13;71.59;98982.98;1679290;85;21072;-93
2021/06/14 04:57:54;;;;;;;6.65;2.80;;;;;;;13.20;70.45;98985.73;1679389;85;21083;-93
2021/06/14 05:00:22;;;;;;;10.43;2.72;;;;;;;13.17;71.32;98986.30;1694987;82;21184;-93
2021/06/14 05:02:49;;;;;;;8.75;2.67;;;;;;;13.19;70.91;98985.36;1669901;86;21565;-93
2021/06/14 05:05:16;;;;;;;15.43;3.72;;;;;;;13.22;70.69;98993.06;1654937;83;21157;-95
2021/06/14 05:07:43;;;;;;;12.82;3.40;;;;;;;13.29;70.48;98993.67;1638166;88;21159;-92
2021/06/14 05:10:10;;;;;;;6.58;3.30;;;;;;;13.32;70.49;98994.44;1637996;87;21583;-94
2021/06/14 05:12:37;;;;;;;11.35;3.40;;;;;;;13.22;71.17;98985.69;1690172;82;21069;-94
2021/06/14 05:15:06;;;;;;;6.15;2.95;;;;;;;13.09;70.85;98967.01;1694579;85;21124;-93
2021/06/14 05:17:33;;;;;;;9.10;3.40;;;;;;;13.27;71.80;98996.79;1566148;84;21137;-93
2021/06/14 05:19:59;;;;;;;10.40;3.47;;;;;;;13.26;71.20;98989.88;1590115;90;21091;-94
2021/06/14 05:22:26;;;;;;;8.33;3.33;;;;;;;13.22;71.62;98989.14;1590242;90;21138;-91
2021/06/14 05:24:52;;;;;;;5.92;2.92;;;;;;;13.22;72.66;98993.06;1590161;90;21115;-93
2021/06/14 05:27:19;;;;;;;11.20;3.20;;;;;;;13.22;72.43;98998.28;1588526;90;21138;-94
2021/06/14 05:29:45;;;;;;;9.80;3.45;;;;;;;13.19;71.93;99006.24;1585923;90;21036;-93
2021/06/14 05:32:12;;;;;;;4.37;2.70;;;;;;;13.05;73.77;99003.27;1586112;90;21140;-92
2021/06/14 05:34:38;;;;;;;5.85;2.85;;;;;;;13.07;73.62;98999.72;1586235;90;21099;-87
2021/06/14 05:37:05;;;;;;;11.85;3.58;;;;;;;12.73;74.05;98957.89;1586551;89;21347;-93
2021/06/14 05:39:31;;;;;;;9.00;3.40;;;;;;;13.03;74.24;99007.69;1612794;87;21712;-89
2021/06/14 05:41:58;;;;;;;16.85;3.60;;;;;;;13.16;73.01;99012.02;1623136;87;21019;-90
2021/06/14 05:44:29;;;;;;;10.78;3.27;;;;;;;13.20;73.04;99021.44;1618241;89;21107;-91
2021/06/14 05:47:14;;;;;;;6.13;2.67;;;;;;;13.14;73.71;99016.83;1595765;87;21095;-86
2021/06/14 05:50:02;;;;;;;8.93;2.92;;;;;;;13.13;74.90;99020.83;1597090;86;21014;-87
2021/06/14 05:52:32;;;;;;;7.05;3.33;;;;;;;13.16;75.38;99022.00;1631185;82;21003;-89
2021/06/14 05:55:06;;;;;;;7.03;3.08;;;;;;;13.22;73.97;99030.91;1702098;83;21052;-90
2021/06/14 05:57:46;;;;;;;10.82;3.25;;;;;;;13.22;74.73;99032.22;1656645;81;21098;-91
2021/06/14 06:03:27;;;;;;;7.55;3.02;;;;;;;13.11;76.48;99038.27;1638704;87;21075;-92
2021/06/14 06:05:56;;;;;;;10.40;4.05;;;;;;;13.16;76.67;99046.80;1646668;83;21105;-94
2021/06/14 06:08:26;;;;;;;10.63;3.45;;;;;;;13.20;76.01;99043.17;1662051;86;21052;-91
2021/06/14 06:10:52;;;;;;;11.90;3.47;;;;;;;13.23;75.48;99040.89;1634602;87;21053;-94
2021/06/14 06:13:19;;;;;;;11.65;3.67;;;;;;;13.24;75.42;99042.15;1609912;89;21020;-93
2021/06/14 06:15:45;;;;;;;7.40;3.30;;;;;;;13.22;75.99;99045.27;1636742;87;21132;-93
2021/06/14 06:18:12;;;;;;;9.53;3.67;;;;;;;13.21;75.75;99044.89;1608635;87;21100;-82
2021/06/14 06:20:39;;;;;;;6.53;3.15;;;;;;;13.21;76.02;99050.11;1629690;88;21043;-93
2021/06/14 06:23:06;;;;;;;13.53;3.47;;;;;;;13.26;76.89;99058.61;1630119;88;21155;-94
2021/06/14 06:25:32;;;;;;;10.32;3.42;;;;;;;13.27;76.30;99059.02;1660656;86;21005;-91
2021/06/14 06:27:59;;;;;;;8.40;3.15;;;;;;;13.29;77.39;99053.31;1657043;86;21074;-92
2021/06/14 06:30:29;;;;;;;8.80;3.72;;;;;;;13.35;76.22;99050.06;1656803;85;20997;-90
2021/06/14 06:32:57;;;;;;;7.10;3.20;;;;;;;13.41;77.55;99048.09;1723500;82;21105;-93
2021/06/14 06:35:24;;;;;;;18.07;4.15;;;;;;;13.37;78.19;99042.59;1699646;82;21100;-94
2021/06/14 06:37:51;;;;;;;11.38;3.60;;;;;;;13.44;77.72;99051.03;1703915;84;21118;-93
2021/06/14 06:40:17;;;;;;;9.20;3.65;;;;;;;13.53;77.65;99055.47;1707236;84;21596;-93
2021/06/14 06:42:44;;;;;;;7.17;3.27;;;;;;;13.58;77.08;99055.74;1715339;83;21038;-94
2021/06/14 06:45:16;;;;;;;8.48;3.45;;;;;;;13.55;76.30;99058.02;1717755;81;21019;-83
2021/06/14 06:47:48;;;;;;;9.50;3.77;;;;;;;13.66;75.13;99056.30;1735842;81;20955;-86
2021/06/14 06:50:40;;;;;;;9.10;3.30;;;;;;;13.62;75.44;99060.78;1732725;81;21096;-86
2021/06/14 06:53:14;;;;;;;13.25;3.60;;;;;;;13.67;76.36;99058.02;1677242;81;21194;-93
2021/06/14 06:55:40;;;;;;;8.55;3.30;;;;;;;13.60;75.43;99057.84;1653313;86;21114;-93
2021/06/14 06:58:07;;;;;;;9.95;3.12;;;;;;;13.63;76.37;99064.27;1649401;86;21035;-94
2021/06/14 07:00:33;;;;;;;5.78;2.83;;;;;;;13.67;75.41;99068.47;1655978;87;21495;-95
2021/06/14 07:03:00;;;;;;;8.95;3.00;;;;;;;13.68;75.41;99059.70;1653180;87;21015;-92
2021/06/14 07:05:27;;;;;;;6.30;3.00;;;;;;;13.66;76.82;99062.37;1656036;85;20993;-92
2021/06/14 07:07:53;;;;;;;9.00;3.37;;;;;;;13.80;75.46;99067.53;1651572;86;21008;-93
2021/06/14 07:10:20;;;;;;;7.85;3.20;;;;;;;13.76;75.07;99063.33;1654976;86;21190;-90
2021/06/14 07:12:47;;;;;;;13.72;3.70;;;;;;;13.84;74.43;99064.72;1649986;86;21380;-92
2021/06/14 07:15:14;;;;;;;8.38;3.72;;;;;;;13.86;75.25;99070.73;1678303;82;21121;-93
2021/06/14 07:17:44;;;;;;;11.20;3.70;;;;;;;13.86;75.72;99069.89;1706244;82;22092;-93
2021/06/14 07:20:13;;;;;;;7.62;3.52;;;;;;;13.88;74.69;99074.14;1715485;81;21142;-95
2021/06/14 07:22:42;;;;;;;7.62;3.02;;;;;;;13.85;74.52;99078.20;1751246;79;21112;-95
2021/06/14 07:25:14;;;;;;;7.62;3.27;;;;;;;13.85;74.69;99086.50;1701735;81;21082;-93
2021/06/14 07:27:43;;;;;;;8.23;2.90;;;;;;;13.89;74.62;99090.23;1664743;84;21359;-93
2021/06/14 07:30:12;;;;;;;9.33;3.00;;;;;;;13.94;74.92;99096.58;1648013;81;21171;-95
2021/06/14 07:32:39;;;;;;;10.10;3.40;;;;;;;13.97;74.99;99100.39;1647713;87;21055;-96
2021/06/14 07:35:08;;;;;;;6.45;3.17;;;;;;;13.96;74.69;99098.67;1658326;86;21028;-94
2021/06/14 07:37:35;;;;;;;5.78;2.45;;;;;;;14.01;75.03;99101.98;1583357;83;21398;-93
2021/06/14 07:40:01;;;;;;;7.92;2.95;;;;;;;14.02;75.11;99105.44;1584764;89;21089;-92
2021/06/14 07:42:28;;;;;;;10.28;3.30;;;;;;;14.08;74.32;99109.95;1625002;87;21024;-93
2021/06/14 07:44:54;;;;;;;11.40;3.02;;;;;;;14.19;74.46;99118.70;1628233;87;21050;-92
2021/06/14 07:47:21;;;;;;;7.15;2.70;;;;;;;14.33;74.03;99120.77;1606121;88;21867;-93
2021/06/14 07:49:48;;;;;;;8.65;3.05;;;;;;;14.47;74.23;99125.45;1621925;87;21135;-91
2021/06/14 07:52:15;;;;;;;8.10;3.40;;;;;;;14.51;73.48;99131.79;1625958;87;21040;-89
2021/06/14 07:54:41;;;;;;;7.62;3.45;;;;;;;14.63;74.46;99132.25;1628142;88;21112;-86
2021/06/14 07:57:13;;;;;;;13.10;3.35;;;;;;;14.69;73.71;99129.38;1614546;84;21139;31
2021/06/14 07:59:40;;;;;;;4.80;2.55;;;;;;;14.81;73.18;99126.24;1626495;83;21152;-86
2021/06/14 08:05:20;;;;;;;10.00;3.20;;;;;;;14.93;72.85;99132.73;1615843;86;21131;-89
2021/06/14 08:07:46;;;;;;;6.95;3.20;;;;;;;14.94;72.35;99137.06;1671577;85;21051;-90
2021/06/14 08:10:17;;;;;;;5.60;2.30;;;;;;;15.04;73.05;99138.38;1667220;81;21063;31
2021/06/14 08:19:03;;;;;;;7.17;2.70;;;;;;;15.24;72.65;99130.96;1671376;82;21120;-93
2021/06/14 08:21:31;;;;;;;6.30;2.65;;;;;;;15.56;71.55;99131.74;1675853;83;21076;-96
2021/06/14 08:29:44;;;;;;;10.95;2.90;;;;;;;15.68;71.03;99141.70;1666990;83;21121;31
2021/06/14 08:32:19;;;;;;;7.75;3.27;;;;;;;15.80;70.41;99143.79;1668356;81;22824;31
2021/06/14 08:34:46;;;;;;;8.03;2.65;;;;;;;15.95;71.09;99144.00;1734926;81;21083;-94
2021/06/14 08:37:12;;;;;;;7.22;2.72;;;;;;;15.90;70.07;99144.22;1735788;83;21059;-94
2021/06/14 08:39:39;;;;;;;6.87;2.60;;;;;;;15.82;70.29;99138.48;1735913;83;21024;-94
2021/06/14 08:42:06;;;;;;;6.25;2.50;;;;;;;15.89;70.19;99138.57;1760217;81;21021;-95
2021/06/14 08:47:23;;;;;;;4.62;2.35;;;;;;;16.03;70.62;99131.38;1660037;84;21090;-87
2021/06/14 09:11:55;;;;;;;5.08;1.90;;;;;;;17.34;64.32;99138.09;1674084;83;21091;-90
2021/06/14 09:14:28;;;;;;;6.12;2.27;;;;;;;17.50;63.30;99135.88;1650102;84;21131;-86
2021/06/14 09:17:04;;;;;;;;;;;;;;;17.68;64.04;99137.98;1668408;86;21123;-90
2021/06/14 09:19:40;;;;;;;8.00;2.35;;;;;;;17.72;63.39;99133.42;1665301;86;20110;-89
2021/06/14 09:22:23;;;;;;;5.53;1.90;;;;;;;17.65;63.00;99142.11;1654836;83;20992;-87
2021/06/14 09:25:12;;;;;;;13.50;7.22;;;;;;;17.98;63.18;99130.72;1631815;87;21090;-89
2021/06/14 09:27:46;;;;;;;5.12;2.10;;;;;;;18.14;60.87;99140.41;1607568;88;21615;-85
2021/06/14 09:30:32;;;;;;;8.48;2.00;;;;;;;18.12;58.79;99134.38;1621544;87;21017;-84
2021/06/14 09:33:03;;;;;;;6.33;2.30;;;;;;;18.01;58.36;99125.78;1621265;87;21000;-84
2021/06/14 09:35:36;;;;;;;7.75;2.17;;;;;;;18.06;58.75;99129.86;1622624;87;21096;-86
2021/06/14 09:38:10;;;;;;;10.23;3.00;;;;;;;18.13;60.07;99129.52;1617192;88;21099;-83
2021/06/14 09:40:55;;;;;;;10.70;3.50;;;;;;;18.28;59.87;99132.14;1629104;87;21123;-82
2021/06/14 09:43:30;;;;;;;7.92;2.12;;;;;;;18.07;58.83;99131.53;1624710;87;21039;-84
2021/06/14 09:46:00;;;;;;;5.25;2.00;;;;;;;18.12;59.50;99133.06;1621974;87;21047;-84
2021/06/14 09:48:30;;;;;;;7.00;2.22;;;;;;;18.06;59.56;99135.11;1626794;87;21096;-82
2021/06/14 09:51:00;;;;;;;11.22;2.30;;;;;;;18.02;59.22;99129.61;1625228;88;21033;-84
2021/06/14 09:53:37;;;;;;;5.85;2.50;;;;;;;17.92;58.80;99124.95;1622475;88;21409;-84
2021/06/14 09:56:26;;;;;;;9.08;2.65;;;;;;;17.74;59.57;99133.34;1623477;88;21045;-84
2021/06/14 09:58:56;;;;;;;13.85;2.80;;;;;;;17.53;60.24;99130.94;1608678;88;21069;-79
2021/06/14 10:01:29;;;;;;;5.25;2.62;;;;;;;17.33;60.82;99131.13;1628103;87;21082;-83
2021/06/14 10:04:00;;;;;;;5.80;2.12;;;;;;;17.07;61.50;99125.47;1606365;88;21141;-83
2021/06/14 10:06:42;;;;;;;7.67;2.62;;;;;;;17.06;60.33;99127.22;1686071;83;21117;-85
2021/06/14 10:09:13;;;;;;;4.80;2.37;;;;;;;16.92;60.91;99135.43;1693698;83;21050;-85
2021/06/14 10:11:44;;;;;;;8.13;2.77;;;;;;;16.85;60.98;99135.73;1701626;83;21118;-84
2021/06/14 10:14:18;;;;;;;7.33;2.80;;;;;;;16.59;62.88;99132.20;1674837;84;21142;-85
2021/06/14 10:16:49;;;;;;;6.20;2.90;;;;;;;16.61;63.25;99137.78;1692756;83;21073;-85
2021/06/14 10:19:18;;;;;;;8.35;2.60;;;;;;;16.59;63.87;99135.70;1688981;83;21072;-85
2021/06/14 10:21:51;;;;;;;8.68;3.00;;;;;;;16.39;64.18;99140.57;1676130;84;21056;-86
2021/06/14 10:24:22;;;;;;;5.12;2.20;;;;;;;16.19;64.24;99137.59;1658264;83;21023;-85
2021/06/14 10:26:52;;;;;;;6.75;2.37;;;;;;;16.19;64.64;99143.31;1700370;84;20978;-85
2021/06/14 10:29:21;;;;;;;8.55;2.80;;;;;;;16.12;64.18;99141.91;1701053;83;21088;-84
2021/06/14 10:31:51;;;;;;;9.08;2.87;;;;;;;16.09;63.73;99143.76;1705443;83;21058;-88
2021/06/14 10:34:19;;;;;;;8.88;2.58;;;;;;;15.95;64.32;99146.15;1703259;83;21098;-88
2021/06/14 10:36:54;;;;;;;5.75;2.40;;;;;;;15.87;65.48;99145.19;1697911;84;21034;-85
2021/06/14 10:39:25;;;;;;;6.92;2.30;;;;;;;15.88;65.18;99144.28;1675984;85;20968;-87
2021/06/14 10:41:53;;;;;;;5.53;2.33;;;;;;;15.77;66.56;99147.84;1706583;82;22771;-93
2021/06/14 10:44:20;;;;;;;12.18;2.42;;;;;;;15.81;66.75;99153.34;1694748;84;21147;-94
2021/06/14 10:46:48;;;;;;;4.05;2.00;;;;;;;15.77;66.25;99145.70;1708911;82;21515;-92
2021/06/14 10:49:17;;;;;;;9.25;2.42;;;;;;;15.61;66.16;99124.07;1690496;83;21188;-93
2021/06/14 10:51:45;;;;;;;7.05;2.25;;;;;;;15.84;65.87;99154.52;1679346;82;21154;-89
2021/06/14 10:54:17;;;;;;;8.58;2.45;;;;;;;15.90;65.53;99159.95;1709872;82;21027;-89
2021/06/14 10:56:46;;;;;;;7.65;2.30;;;;;;;15.94;65.17;99155.42;1701468;82;21095;-88
2021/06/14 10:59:23;;;;;;;7.15;2.10;;;;;;;16.00;65.38;99153.36;1669912;82;21106;31
2021/06/14 11:01:50;;;;;;;4.87;1.98;;;;;;;16.09;64.74;99145.51;1651639;86;21065;-93
2021/06/14 11:04:29;;;;;;;5.35;2.00;;;;;;;16.09;65.20;99150.31;1630841;87;21058;-94
2021/06/14 11:09:52;;;;;;;10.05;2.35;;;;;;;16.43;64.14;99144.78;1646764;86;21073;-91
2021/06/14 11:12:29;;;;;;;4.53;1.98;;;;;;;16.67;63.73;99141.85;1674606;84;21099;-92
2021/06/14 11:15:00;;;;;;;9.03;2.30;;;;;;;16.97;64.09;99147.41;1723497;82;21048;-89
2021/06/14 11:17:34;;;;;;;10.70;2.15;;;;;;;17.28;62.95;99146.66;1732923;81;21083;-89
2021/06/14 11:20:09;;;;;;;4.95;1.90;;;;;;;17.46;61.67;99142.70;1721895;82;21233;-87
2021/06/14 11:22:47;;;;;;;7.00;1.75;;;;;;;17.72;59.20;99139.16;1702685;83;21050;-87
2021/06/14 11:25:28;;;;;;;5.85;1.90;;;;;;;18.01;60.42;99133.19;1718800;82;21088;-90
2021/06/14 11:27:59;;;;;;;5.17;1.90;;;;;;;18.22;59.21;99131.61;1713867;82;21058;-92
2021/06/14 11:30:31;;;;;;;7.72;1.90;;;;;;;18.56;58.53;99128.38;1723702;83;21051;-91
2021/06/14 11:41:55;;;;;;;6.03;1.90;;;;;;;19.34;55.92;99113.72;1646834;82;21126;31
2021/06/14 11:44:28;;;;;;;4.17;1.62;;;;;;;19.34;55.33;99115.03;1637758;84;21112;-89
2021/06/14 11:47:18;;;;;;;5.78;1.80;;;;;;;19.56;54.98;99106.69;1658754;82;21186;-88
2021/06/14 11:59:02;;;;;;;2.72;1.50;;;;;;;20.34;51.90;99092.49;1644617;85;21379;-88
2021/06/14 12:01:35;;;;;;;2.92;1.30;;;;;;;20.65;51.56;99099.28;1663971;85;21019;-87
2021/06/14 12:04:07;;;;;;;2.72;1.20;;;;;;;20.75;49.75;99092.91;1652515;85;21290;-90
2021/06/14 12:06:43;;;;;;;1.82;1.20;;;;;;;20.92;48.42;99094.39;1647156;82;21547;31
2021/06/14 12:09:30;;;;;;;7.67;1.90;;;;;;;20.89;46.90;99090.66;1607989;83;21176;31
2021/06/14 12:12:04;;;;;;;3.47;1.52;;;;;;;21.19;48.26;99090.35;1589864;87;21140;-86
2021/06/14 12:14:34;;;;;;;2.17;1.30;;;;;;;21.38;46.99;99088.58;1646030;85;21086;-89
2021/06/14 12:17:07;;;;;;;4.33;1.20;;;;;;;21.21;46.20;99093.73;1619392;88;21063;-88
2021/06/14 12:51:35;;;;;;;2.67;1.37;;;;;;;21.70;45.49;99064.81;1672978;82;21127;-88
2021/06/14 12:54:03;;;;;;;7.85;1.42;;;;;;;21.63;45.46;99054.67;1697704;83;21043;-88
2021/06/14 13:02:42;;;;;;;4.60;1.40;;;;;;;22.96;44.00;99059.47;1594904;83;21135;-91
2021/06/14 13:05:14;;;;;;;4.70;1.12;;;;;;;22.23;43.49;99054.78;1607483;88;21128;-92
2021/06/14 13:08:07;;;;;;;4.80;1.12;;;;;;;21.91;44.58;99055.34;1646641;84;21129;-92
2021/06/14 13:10:49;;;;;;;4.80;1.30;;;;;;;21.83;45.77;99057.70;1629199;84;21276;-90
2021/06/14 13:13:20;;;;;;;4.33;1.47;;;;;;;21.70;45.45;99049.78;1611144;89;21091;-91
2021/06/14 13:16:07;;;;;;;2.87;1.17;;;;;;;21.47;46.00;99046.14;1653508;85;21140;-89
2021/06/14 13:18:35;;;;;;;2.05;1.25;;;;;;;21.25;46.58;99052.91;1665143;85;21508;-88
2021/06/14 13:21:15;;;;;;;3.90;1.45;;;;;;;21.02;48.63;99052.33;1657624;85;21053;-86
2021/06/14 13:23:51;;;;;;;3.70;1.60;;;;;;;21.09;48.01;99052.29;1669991;82;21094;-90
2021/06/14 13:26:22;;;;;;;5.05;1.40;;;;;;;21.14;47.96;99048.00;1666586;82;21248;-88
2021/06/14 13:28:50;;;;;;;4.70;1.32;;;;;;;20.95;47.97;99052.38;1644522;87;21133;-85
2021/06/14 13:31:23;;;;;;;13.20;1.60;;;;;;;20.77;48.52;99043.91;1646510;84;21185;-85
2021/06/14 13:36:44;;;;;;;5.75;1.40;;;;;;;21.20;48.65;99043.60;1644438;87;21116;-89
2021/06/14 13:39:17;;;;;;;5.22;1.30;;;;;;;22.13;46.34;99042.70;1644396;87;21064;-90